createdAt,value
2023-05-01T00:01:06.401Z,92619.84
2023-05-01T00:03:36.488Z,92619.84
2023-05-01T00:06:08.275Z,92616.91
2023-05-01T00:08:39.340Z,92618.97
2023-05-01T00:11:11.711Z,92621.84
2023-05-01T00:13:41.263Z,92615.22
2023-05-01T00:16:11.422Z,92610.75
2023-05-01T00:18:41.519Z,92606.50
2023-05-01T00:21:11.197Z,92608.25
2023-05-01T00:23:41.969Z,92614.03
2023-05-01T00:26:11.352Z,92619.44
2023-05-01T00:28:40.885Z,92615.22
2023-05-01T00:31:10.501Z,92619.16
2023-05-01T00:33:40.739Z,92620.72
2023-05-01T00:36:10.852Z,92621.78
2023-05-01T00:38:41.959Z,92628.78
2023-05-01T00:41:11.355Z,92631.78
2023-05-01T00:43:40.810Z,92628.25
2023-05-01T00:46:11.484Z,92632.34
2023-05-01T00:49:52.321Z,92628.53
2023-05-01T00:52:21.665Z,92628.59
2023-05-01T00:54:52.446Z,92636.13
2023-05-01T00:57:23.213Z,92638.59
2023-05-01T00:59:52.791Z,92635.56
2023-05-01T01:02:22.790Z,92634.94
2023-05-01T01:04:54.004Z,92633.72
2023-05-01T01:07:43.617Z,92634.34
2023-05-01T01:10:25.242Z,92638.28
2023-05-01T01:13:10.993Z,92630.78
2023-05-01T01:15:49.582Z,92635.84
2023-05-01T01:18:25.750Z,92640.56
2023-05-01T01:21:07.052Z,92644.91
2023-05-01T01:24:25.686Z,92642.78
2023-05-01T01:27:36.928Z,92651.41
2023-05-01T01:30:49.182Z,92656.84
2023-05-01T01:33:51.883Z,92650.72
2023-05-01T01:36:27.454Z,92655.28
2023-05-01T01:39:11.698Z,92648.81
2023-05-01T01:41:42.926Z,92649.34
2023-05-01T01:44:21.464Z,92653.53
2023-05-01T01:46:54.382Z,92649.59
2023-05-01T01:49:29.100Z,92639.97
2023-05-01T01:52:01.982Z,92637.34
2023-05-01T01:54:37.240Z,92637.03
2023-05-01T01:57:09.893Z,92634.63
2023-05-01T01:59:39.299Z,92640.59
2023-05-01T02:02:10.409Z,92636.63
2023-05-01T02:04:44.827Z,92637.97
2023-05-01T02:07:16.530Z,92633.19
2023-05-01T02:09:48.542Z,92634.03
2023-05-01T02:12:19.678Z,92639.28
2023-05-01T02:14:51.768Z,92637.44
2023-05-01T02:17:22.968Z,92645.09
2023-05-01T02:19:55.589Z,92640.38
2023-05-01T02:22:25.998Z,92640.50
2023-05-01T02:24:56.842Z,92649.41
2023-05-01T02:27:31.481Z,92646.72
2023-05-01T02:30:00.923Z,92647.25
2023-05-01T02:32:30.399Z,92650.63
2023-05-01T02:35:01.695Z,92648.03
2023-05-01T02:37:31.422Z,92653.75
2023-05-01T02:40:02.156Z,92652.19
2023-05-01T02:42:32.493Z,92655.91
2023-05-01T02:45:07.115Z,92657.00
2023-05-01T02:47:40.919Z,92660.59
2023-05-01T02:50:13.765Z,92656.06
2023-05-01T02:52:43.840Z,92672.44
2023-05-01T02:55:14.923Z,92666.56
2023-05-01T02:57:44.409Z,92665.41
2023-05-01T03:00:15.424Z,92665.34
2023-05-01T03:02:44.942Z,92675.44
2023-05-01T03:05:15.874Z,92675.44
2023-05-01T03:07:45.264Z,92677.81
2023-05-01T03:10:15.030Z,92680.41
2023-05-01T03:12:44.582Z,92677.66
2023-05-01T03:15:14.253Z,92678.94
2023-05-01T03:17:43.835Z,92681.06
2023-05-01T03:20:16.401Z,92669.41
2023-05-01T03:22:46.063Z,92676.16
2023-05-01T03:25:15.732Z,92676.97
2023-05-01T03:27:45.367Z,92683.56
2023-05-01T03:30:15.254Z,92680.75
2023-05-01T03:32:44.929Z,92682.72
2023-05-01T03:35:16.055Z,92688.53
2023-05-01T03:37:45.510Z,92681.63
2023-05-01T03:40:15.695Z,92684.66
2023-05-01T03:42:45.197Z,92686.13
2023-05-01T03:45:14.618Z,92682.41
2023-05-01T03:50:50.889Z,92688.44
2023-05-01T03:53:20.638Z,92694.56
2023-05-01T03:55:50.576Z,92693.81
2023-05-01T03:58:22.044Z,92700.56
2023-05-01T04:00:51.384Z,92694.28
2023-05-01T04:03:20.852Z,92694.63
2023-05-01T04:05:51.878Z,92701.84
2023-05-01T04:08:21.313Z,92706.00
2023-05-01T04:10:50.890Z,92705.16
2023-05-01T04:13:20.405Z,92715.44
2023-05-01T04:15:49.874Z,92713.03
2023-05-01T04:18:19.488Z,92714.34
2023-05-01T04:20:50.523Z,92714.69
2023-05-01T04:23:21.414Z,92715.03
2023-05-01T04:25:51.850Z,92716.75
2023-05-01T04:28:21.342Z,92722.03
2023-05-01T04:30:51.001Z,92723.53
2023-05-01T04:33:20.464Z,92723.59
2023-05-01T04:35:51.347Z,92719.66
2023-05-01T04:38:20.926Z,92730.53
2023-05-01T04:40:50.430Z,92727.41
2023-05-01T04:43:19.794Z,92729.38
2023-05-01T04:45:50.008Z,92727.91
2023-05-01T04:48:19.485Z,92729.44
2023-05-01T04:50:50.409Z,92721.56
2023-05-01T04:53:19.841Z,92732.94
2023-05-01T04:55:49.328Z,92739.72
2023-05-01T04:58:18.749Z,92730.09
2023-05-01T05:00:48.319Z,92736.59
2023-05-01T05:03:20.091Z,92739.38
2023-05-01T05:05:51.164Z,92741.78
2023-05-01T05:08:20.630Z,92739.06
2023-05-01T05:10:50.115Z,92744.38
2023-05-01T05:13:19.529Z,92744.56
2023-05-01T05:15:49.028Z,92743.13
2023-05-01T05:18:18.697Z,92743.81
2023-05-01T05:20:50.562Z,92745.13
2023-05-01T05:23:19.954Z,92745.44
2023-05-01T05:25:49.412Z,92751.97
2023-05-01T05:28:18.664Z,92756.44
2023-05-01T05:30:48.277Z,92755.91
2023-05-01T05:33:17.720Z,92759.22
2023-05-01T05:35:47.331Z,92765.72
2023-05-01T05:38:18.237Z,92765.19
2023-05-01T05:40:47.802Z,92757.31
2023-05-01T05:43:17.245Z,92766.22
2023-05-01T05:45:46.699Z,92769.16
2023-05-01T05:48:16.187Z,92763.69
2023-05-01T05:50:46.030Z,92775.81
2023-05-01T05:53:16.955Z,92774.88
2023-05-01T05:55:46.823Z,92779.72
2023-05-01T05:58:20.149Z,92786.59
2023-05-01T06:00:50.372Z,92789.34
2023-05-01T06:03:20.075Z,92798.88
2023-05-01T06:05:50.255Z,92795.97
2023-05-01T06:08:22.293Z,92796.84
2023-05-01T06:10:51.693Z,92803.91
2023-05-01T06:13:21.313Z,92807.63
2023-05-01T06:15:50.831Z,92807.69
2023-05-01T06:18:20.453Z,92805.63
2023-05-01T06:20:50.168Z,92803.97
2023-05-01T06:23:21.134Z,92803.44
2023-05-01T06:25:50.690Z,92807.97
2023-05-01T06:28:20.328Z,92813.66
2023-05-01T06:30:49.837Z,92804.19
2023-05-01T06:33:19.230Z,92810.88
2023-05-01T06:35:48.701Z,92823.19
2023-05-01T06:38:19.637Z,92824.47
2023-05-01T06:40:51.663Z,92821.00
2023-05-01T06:43:21.154Z,92823.44
2023-05-01T06:45:50.515Z,92830.47
2023-05-01T06:50:50.708Z,92830.91
2023-05-01T06:53:20.235Z,92826.03
2023-05-01T06:55:49.564Z,92839.31
2023-05-01T06:58:24.159Z,92834.31
2023-05-01T07:00:56.138Z,92826.94
2023-05-01T07:03:27.874Z,92830.00
2023-05-01T07:05:58.710Z,92830.78
2023-05-01T07:08:28.962Z,92831.25
2023-05-01T07:10:58.761Z,92846.22
2023-05-01T07:13:28.418Z,92840.84
2023-05-01T07:15:58.011Z,92848.25
2023-05-01T07:18:27.479Z,92856.72
2023-05-01T07:20:58.882Z,92853.75
2023-05-01T07:23:28.468Z,92855.63
2023-05-01T07:25:58.035Z,92866.22
2023-05-01T07:28:27.689Z,92855.84
2023-05-01T07:30:57.379Z,92861.72
2023-05-01T07:33:27.186Z,92866.31
2023-05-01T07:35:58.290Z,92862.94
2023-05-01T07:38:27.939Z,92865.41
2023-05-01T07:40:57.498Z,92873.13
2023-05-01T07:43:26.908Z,92860.84
2023-05-01T07:46:00.657Z,92866.16
2023-05-01T07:48:32.038Z,92862.78
2023-05-01T07:51:06.296Z,92870.44
2023-05-01T07:53:35.801Z,92878.84
2023-05-01T07:56:09.652Z,92877.84
2023-05-01T07:58:41.204Z,92874.50
2023-05-01T08:01:11.121Z,92880.59
2023-05-01T08:03:40.891Z,92880.56
2023-05-01T08:06:11.968Z,92886.56
2023-05-01T08:08:41.561Z,92885.38
2023-05-01T08:11:11.498Z,92883.78
2023-05-01T08:13:41.092Z,92888.28
2023-05-01T08:16:10.632Z,92892.81
2023-05-01T08:18:40.108Z,92899.22
2023-05-01T08:21:10.984Z,92896.44
2023-05-01T08:23:40.666Z,92898.38
2023-05-01T08:26:10.183Z,92899.66
2023-05-01T08:28:39.807Z,92900.88
2023-05-01T08:31:09.448Z,92913.41
2023-05-01T08:33:42.070Z,92918.78
2023-05-01T08:36:13.960Z,92919.75
2023-05-01T08:38:43.528Z,92923.66
2023-05-01T08:41:18.060Z,92919.09
2023-05-01T08:43:47.818Z,92915.06
2023-05-01T08:46:30.834Z,92916.59
2023-05-01T08:49:03.020Z,92918.78
2023-05-01T08:51:36.375Z,92914.50
2023-05-01T08:54:08.559Z,92924.88
2023-05-01T08:56:38.695Z,92925.31
2023-05-01T08:59:09.073Z,92920.19
2023-05-01T09:01:39.700Z,92926.00
2023-05-01T09:04:10.513Z,92924.63
2023-05-01T09:06:41.847Z,92922.00
2023-05-01T09:09:11.334Z,92929.50
2023-05-01T09:11:40.800Z,92920.94
2023-05-01T09:14:10.280Z,92917.78
2023-05-01T09:16:39.942Z,92924.28
2023-05-01T09:19:09.378Z,92913.06
2023-05-01T09:21:40.392Z,92927.34
2023-05-01T09:24:09.823Z,92931.50
2023-05-01T09:26:43.408Z,92933.16
2023-05-01T09:29:14.691Z,92933.59
2023-05-01T09:31:44.331Z,92939.66
2023-05-01T09:34:13.897Z,92951.28
2023-05-01T09:36:48.733Z,92952.53
2023-05-01T09:39:25.580Z,92948.94
2023-05-01T09:41:55.208Z,92951.44
2023-05-01T09:44:25.818Z,92950.47
2023-05-01T09:46:55.536Z,92956.28
2023-05-01T09:50:50.573Z,92955.84
2023-05-01T09:53:20.003Z,92969.44
2023-05-01T09:56:03.446Z,92969.84
2023-05-01T09:58:32.859Z,92963.19
2023-05-01T10:01:02.518Z,92963.06
2023-05-01T10:03:32.139Z,92964.44
2023-05-01T10:06:04.521Z,92969.28
2023-05-01T10:08:48.268Z,92965.28
2023-05-01T10:11:18.204Z,92961.13
2023-05-01T10:13:47.662Z,92956.28
2023-05-01T10:16:32.669Z,92960.69
2023-05-01T10:19:04.549Z,92963.22
2023-05-01T10:21:36.624Z,92964.88
2023-05-01T10:24:08.033Z,92969.16
2023-05-01T10:26:38.200Z,92970.25
2023-05-01T10:29:07.560Z,92976.34
2023-05-01T10:31:38.692Z,92983.56
2023-05-01T10:34:09.344Z,92996.28
2023-05-01T10:36:46.420Z,92997.13
2023-05-01T10:39:33.933Z,93000.31
2023-05-01T10:42:05.353Z,92999.81
2023-05-01T10:44:36.304Z,93003.19
2023-05-01T10:47:48.936Z,93000.59
2023-05-01T10:50:18.982Z,93003.44
2023-05-01T10:53:20.528Z,93008.28
2023-05-01T10:55:51.504Z,93012.13
2023-05-01T11:10:52.986Z,93003.56
2023-05-01T11:14:00.965Z,93004.97
2023-05-01T11:16:49.727Z,92994.78
2023-05-01T11:19:52.761Z,92992.22
2023-05-01T11:22:22.398Z,92994.66
2023-05-01T11:24:51.914Z,92994.25
2023-05-01T11:27:24.308Z,92999.97
2023-05-01T11:29:54.852Z,92998.06
2023-05-01T11:32:30.348Z,93000.31
2023-05-01T11:35:00.621Z,92998.88
2023-05-01T11:37:44.544Z,93005.78
2023-05-01T11:40:25.378Z,93003.25
2023-05-01T11:43:05.343Z,93005.53
2023-05-01T11:45:37.094Z,92989.28
2023-05-01T11:48:07.723Z,92992.03
2023-05-01T11:50:39.156Z,92989.16
2023-05-01T11:53:16.083Z,92986.22
2023-05-01T11:55:46.697Z,92978.41
2023-05-01T11:58:18.158Z,92984.34
2023-05-01T12:00:47.551Z,92988.78
2023-05-01T12:03:17.851Z,92982.75
2023-05-01T12:05:47.822Z,92983.09
2023-05-01T12:08:19.938Z,92973.22
2023-05-01T12:10:52.157Z,92973.00
2023-05-01T12:13:23.496Z,92971.66
2023-05-01T12:15:55.465Z,92977.56
2023-05-01T12:18:25.506Z,92970.56
2023-05-01T12:20:57.148Z,92964.88
2023-05-01T12:23:35.063Z,92969.53
2023-05-01T12:26:04.622Z,92968.88
2023-05-01T12:28:35.584Z,92962.44
2023-05-01T12:31:05.743Z,92960.22
2023-05-01T12:33:35.349Z,92954.28
2023-05-01T12:36:13.044Z,92959.50
2023-05-01T12:38:43.053Z,92958.78
2023-05-01T12:41:13.544Z,92956.56
2023-05-01T12:43:44.575Z,92955.78
2023-05-01T12:46:18.072Z,92955.13
2023-05-01T12:50:55.056Z,92958.97
2023-05-01T12:53:26.100Z,92964.16
2023-05-01T12:55:57.288Z,92953.31
2023-05-01T12:58:37.480Z,92955.66
2023-05-01T13:01:07.576Z,92960.94
2023-05-01T13:03:40.185Z,92961.88
2023-05-01T13:06:17.084Z,92952.16
2023-05-01T13:08:46.617Z,92952.97
2023-05-01T13:11:17.944Z,92954.59
2023-05-01T13:13:48.524Z,92949.47
2023-05-01T13:16:20.522Z,92940.59
2023-05-01T13:18:51.887Z,92945.97
2023-05-01T13:21:24.960Z,92941.44
2023-05-01T13:23:57.164Z,92936.66
2023-05-01T13:26:31.705Z,92941.69
2023-05-01T13:29:03.380Z,92933.88
2023-05-01T13:31:33.455Z,92938.69
2023-05-01T13:34:03.459Z,92935.44
2023-05-01T13:36:35.483Z,92933.34
2023-05-01T13:39:05.341Z,92936.50
2023-05-01T13:41:35.631Z,92941.19
2023-05-01T13:44:05.976Z,92938.63
2023-05-01T13:46:35.768Z,92936.03
2023-05-01T13:49:09.503Z,92935.31
2023-05-01T13:51:44.922Z,92950.75
2023-05-01T13:54:15.362Z,92940.31
2023-05-01T13:56:44.710Z,92941.25
2023-05-01T13:59:14.112Z,92940.75
2023-05-01T14:01:46.717Z,92937.22
2023-05-01T14:04:21.450Z,92938.09
2023-05-01T14:06:52.566Z,92938.28
2023-05-01T14:09:22.391Z,92942.06
2023-05-01T14:11:53.394Z,92947.13
2023-05-01T14:14:22.973Z,92943.94
2023-05-01T14:16:54.388Z,92944.88
2023-05-01T14:19:24.075Z,92950.22
2023-05-01T14:21:54.961Z,92950.25
2023-05-01T14:24:24.374Z,92960.22
2023-05-01T14:26:53.828Z,92956.84
2023-05-01T14:29:30.191Z,92956.00
2023-05-01T14:32:05.435Z,92959.09
2023-05-01T14:34:35.090Z,92956.06
2023-05-01T14:37:05.911Z,92957.75
2023-05-01T14:39:35.542Z,92968.22
2023-05-01T14:42:05.912Z,92967.09
2023-05-01T14:44:35.625Z,92964.78
2023-05-01T14:47:05.196Z,92971.38
2023-05-01T14:49:34.624Z,92969.59
2023-05-01T14:52:06.935Z,92964.94
2023-05-01T14:54:48.665Z,92976.50
2023-05-01T14:57:18.285Z,92972.66
2023-05-01T14:59:47.800Z,92970.75
2023-05-01T15:02:17.429Z,92976.88
2023-05-01T15:04:46.943Z,92971.31
2023-05-01T15:07:18.048Z,92976.47
2023-05-01T15:09:47.744Z,92974.53
2023-05-01T15:12:17.171Z,92975.09
2023-05-01T15:14:46.688Z,92972.06
2023-05-01T15:17:16.349Z,92969.84
2023-05-01T15:19:45.909Z,92974.56
2023-05-01T15:22:16.805Z,92968.72
2023-05-01T15:24:46.305Z,92972.03
2023-05-01T15:27:15.891Z,92965.13
2023-05-01T15:29:45.373Z,92975.25
2023-05-01T15:32:15.000Z,92972.31
2023-05-01T15:34:44.508Z,92970.94
2023-05-01T15:37:13.952Z,92970.66
2023-05-01T15:39:44.954Z,92977.16
2023-05-01T15:42:14.432Z,92974.34
2023-05-01T15:44:43.981Z,92972.75
2023-05-01T15:47:14.834Z,92978.94
2023-05-01T15:50:50.416Z,92972.41
2023-05-01T15:53:21.230Z,92967.81
2023-05-01T15:55:51.263Z,92977.31
2023-05-01T15:58:21.020Z,92974.94
2023-05-01T16:00:50.846Z,92975.00
2023-05-01T16:03:20.680Z,92975.84
2023-05-01T16:05:51.759Z,92972.81
2023-05-01T16:08:21.326Z,92980.72
2023-05-01T16:10:51.308Z,92977.25
2023-05-01T16:13:20.864Z,92979.06
2023-05-01T16:15:50.281Z,92980.72
2023-05-01T16:18:23.841Z,92993.28
2023-05-01T16:20:55.549Z,92985.56
2023-05-01T16:23:27.947Z,92994.63
2023-05-01T16:25:57.280Z,92997.59
2023-05-01T16:28:27.564Z,93000.16
2023-05-01T16:30:57.413Z,93000.50
2023-05-01T16:33:26.792Z,93005.31
2023-05-01T16:35:59.752Z,92996.16
2023-05-01T16:38:29.258Z,93006.34
2023-05-01T16:40:58.907Z,93011.63
2023-05-01T16:43:28.536Z,93013.38
2023-05-01T16:46:00.258Z,93008.66
2023-05-01T16:48:30.306Z,93017.38
2023-05-01T16:51:01.411Z,93020.13
2023-05-01T16:53:32.295Z,93022.44
2023-05-01T16:56:01.919Z,93023.53
2023-05-01T16:58:31.183Z,93032.94
2023-05-01T17:01:00.855Z,93026.78
2023-05-01T17:03:30.976Z,93030.75
2023-05-01T17:06:01.822Z,93033.22
2023-05-01T17:08:31.158Z,93033.97
2023-05-01T17:11:01.184Z,93038.41
2023-05-01T17:13:31.272Z,93046.47
2023-05-01T17:16:01.101Z,93043.03
2023-05-01T17:18:30.516Z,93041.00
2023-05-01T17:21:01.626Z,93045.88
2023-05-01T17:23:31.118Z,93047.16
2023-05-01T17:26:01.155Z,93042.66
2023-05-01T17:28:30.538Z,93051.06
2023-05-01T17:30:59.902Z,93058.03
2023-05-01T17:33:32.446Z,93051.31
2023-05-01T17:36:03.095Z,93054.50
2023-05-01T17:38:32.500Z,93056.63
2023-05-01T17:41:02.076Z,93055.41
2023-05-01T17:43:31.474Z,93061.44
2023-05-01T17:46:00.977Z,93066.47
2023-05-01T17:48:30.316Z,93059.09
2023-05-01T17:50:59.717Z,93063.19
2023-05-01T17:53:30.803Z,93071.69
2023-05-01T17:56:00.437Z,93069.31
2023-05-01T17:58:29.882Z,93073.19
2023-05-01T18:00:59.252Z,93069.47
2023-05-01T18:03:28.941Z,93075.34
2023-05-01T18:05:58.787Z,93074.09
2023-05-01T18:08:29.816Z,93077.97
2023-05-01T18:10:59.266Z,93079.34
2023-05-01T18:13:30.267Z,93089.13
2023-05-01T18:15:59.762Z,93086.97
2023-05-01T18:18:29.219Z,93096.78
2023-05-01T18:20:58.774Z,93100.03
2023-05-01T18:23:29.781Z,93106.28
2023-05-01T18:25:59.511Z,93105.66
2023-05-01T18:28:29.101Z,93108.59
2023-05-01T18:30:58.613Z,93110.75
2023-05-01T18:33:28.421Z,93113.56
2023-05-01T18:35:57.889Z,93115.84
2023-05-01T18:38:28.477Z,93121.44
2023-05-01T18:40:59.597Z,93115.78
2023-05-01T18:43:28.981Z,93123.31
2023-05-01T18:45:58.885Z,93135.06
2023-05-01T18:51:06.799Z,93144.31
2023-05-01T18:53:37.674Z,93144.59
2023-05-01T18:56:09.643Z,93145.63
2023-05-01T18:58:40.076Z,93149.47
2023-05-01T19:01:09.613Z,93152.19
2023-05-01T19:03:39.089Z,93143.63
2023-05-01T19:06:10.737Z,93141.19
2023-05-01T19:08:40.170Z,93156.28
2023-05-01T19:11:09.592Z,93151.19
2023-05-01T19:13:39.630Z,93153.03
2023-05-01T19:16:09.167Z,93157.53
2023-05-01T19:18:39.196Z,93157.81
2023-05-01T19:21:11.322Z,93159.88
2023-05-01T19:23:41.694Z,93160.06
2023-05-01T19:26:13.175Z,93158.59
2023-05-01T19:28:44.187Z,93157.94
2023-05-01T19:31:14.661Z,93156.47
2023-05-01T19:33:44.384Z,93153.78
2023-05-01T19:36:15.378Z,93164.09
2023-05-01T19:38:45.620Z,93165.09
2023-05-01T19:41:15.281Z,93171.25
2023-05-01T19:43:44.818Z,93168.75
2023-05-01T19:46:14.360Z,93171.44
2023-05-01T19:48:44.782Z,93172.53
2023-05-01T19:51:15.864Z,93173.41
2023-05-01T19:53:45.341Z,93173.19
2023-05-01T19:56:14.854Z,93173.41
2023-05-01T19:58:44.408Z,93165.88
2023-05-01T20:01:14.005Z,93163.19
2023-05-01T20:03:43.909Z,93172.75
2023-05-01T20:06:15.128Z,93173.47
2023-05-01T20:08:44.550Z,93167.44
2023-05-01T20:11:14.516Z,93170.16
2023-05-01T20:13:45.666Z,93167.09
2023-05-01T20:16:15.218Z,93166.91
2023-05-01T20:18:45.640Z,93170.16
2023-05-01T20:21:16.786Z,93173.47
2023-05-01T20:23:46.459Z,93175.91
2023-05-01T20:26:17.778Z,93177.38
2023-05-01T20:28:47.806Z,93177.28
2023-05-01T20:31:17.498Z,93181.00
2023-05-01T20:33:47.307Z,93180.09
2023-05-01T20:36:18.633Z,93187.31
2023-05-01T20:38:48.890Z,93188.25
2023-05-01T20:41:18.288Z,93185.66
2023-05-01T20:43:47.917Z,93183.25
2023-05-01T20:46:17.653Z,93185.22
2023-05-01T20:48:47.723Z,93191.81
2023-05-01T20:51:18.829Z,93190.50
2023-05-01T20:53:48.728Z,93191.53
2023-05-01T20:56:18.141Z,93182.69
2023-05-01T20:58:48.178Z,93182.50
2023-05-01T21:01:17.739Z,93183.88
2023-05-01T21:03:47.308Z,93184.25
2023-05-01T21:06:18.370Z,93188.81
2023-05-01T21:08:48.607Z,93190.88
2023-05-01T21:11:18.080Z,93188.56
2023-05-01T21:13:47.446Z,93194.75
2023-05-01T21:16:17.767Z,93189.84
2023-05-01T21:18:47.191Z,93194.50
2023-05-01T21:21:18.903Z,93197.38
2023-05-01T21:23:50.220Z,93199.31
2023-05-01T21:26:19.890Z,93198.78
2023-05-01T21:28:49.379Z,93203.53
2023-05-01T21:31:18.932Z,93205.28
2023-05-01T21:33:48.397Z,93207.91
2023-05-01T21:36:21.019Z,93206.13
2023-05-01T21:38:50.467Z,93207.25
2023-05-01T21:41:19.868Z,93204.97
2023-05-01T21:43:49.221Z,93211.22
2023-05-01T21:46:20.756Z,93224.56
2023-05-01T21:50:52.249Z,93211.13
2023-05-01T21:53:21.538Z,93217.31
2023-05-01T21:55:51.253Z,93213.97
2023-05-01T21:58:20.608Z,93216.00
2023-05-01T22:00:50.276Z,93219.91
2023-05-01T22:03:20.596Z,93221.56
2023-05-01T22:05:51.643Z,93227.53
2023-05-01T22:08:21.201Z,93225.94
2023-05-01T22:10:50.643Z,93217.28
2023-05-01T22:13:19.993Z,93221.66
2023-05-01T22:15:49.546Z,93222.41
2023-05-01T22:18:19.873Z,93224.94
2023-05-01T22:20:50.866Z,93227.53
2023-05-01T22:23:20.126Z,93224.00
2023-05-01T22:25:49.725Z,93228.16
2023-05-01T22:28:20.908Z,93227.59
2023-05-01T22:30:50.373Z,93221.94
2023-05-01T22:33:19.794Z,93218.09
2023-05-01T22:35:50.700Z,93216.78
2023-05-01T22:38:20.054Z,93220.56
2023-05-01T22:40:49.429Z,93219.06
2023-05-01T22:43:19.021Z,93220.31
2023-05-01T22:45:48.506Z,93219.34
2023-05-01T22:48:17.982Z,93219.91
2023-05-01T22:50:47.429Z,93218.41
2023-05-01T22:53:18.312Z,93208.34
2023-05-01T22:55:47.812Z,93215.41
2023-05-01T22:58:17.301Z,93216.41
2023-05-01T23:00:46.994Z,93218.16
2023-05-01T23:03:16.484Z,93222.53
2023-05-01T23:05:46.071Z,93220.94
2023-05-01T23:08:18.404Z,93223.72
2023-05-01T23:10:47.780Z,93216.44
2023-05-01T23:13:23.732Z,93223.47
2023-05-01T23:15:53.440Z,93217.66
2023-05-01T23:18:26.702Z,93224.78
2023-05-01T23:20:56.122Z,93224.97
2023-05-01T23:23:32.112Z,93222.53
2023-05-01T23:26:01.696Z,93212.41
2023-05-01T23:28:31.380Z,93218.69
2023-05-01T23:31:02.769Z,93215.25
2023-05-01T23:33:38.106Z,93215.66
2023-05-01T23:36:12.721Z,93202.19
2023-05-01T23:38:43.482Z,93207.53
2023-05-01T23:41:13.078Z,93203.09
2023-05-01T23:43:42.796Z,93204.09
2023-05-01T23:46:12.584Z,93205.09
2023-05-01T23:48:43.455Z,93202.03
2023-05-01T23:51:13.103Z,93202.09
2023-05-01T23:53:44.015Z,93199.44
2023-05-01T23:56:13.449Z,93200.16
2023-05-01T23:58:42.799Z,93205.34
